Urb Miradero, Puerto Rico
Current Conditions -  °F | °C
As of 5:53 PM on Sunday 25 Jan 2015 (Local Time) from TJNR Reporting Station
Clear Clear  
Wind Chill: 77°   Ceiling: Unl
Heat Index: 79°   Visibility: 10mi
Dew Point: 68°   Wind: 3mph
Humidity: 74%   Direction: 160°SSE
Pressure: 30.02"   Gusts: NA
Location:  18.1494°N, 65.8294°W
Report Text: TJNR 252153Z AUTO 16003KT 10SM CLR 25/20 A3002 RMK AO2 RAB00E10 SLP166 P0000 T02500200 $
Loading
Personal Weather Stations






























Interactive Weather Map New forecast layout! Learn more

10-Day Weather Forecast

Advertisements
Track Severe Weather on mobile